Time;durP1;ratioP1;P1;durP2;ratioP2;P2;SDS_P1;SDS_P2;PMS_P1;PMS_P2;Temp;Humidity;BMP_temperature;BMP_pressure;BME280_temperature;BME280_humidity;BME280_pressure;Samples;Min_cycle;Max_cycle;Signal;HPM_P1;HPM_P2
2022/01/26 00:06:04;;;;;;;35.43;19.07;;;4.40;99.90;;;;;;5017426;28;20234;-72
2022/01/26 00:08:54;;;;;;;34.10;18.93;;;4.50;99.90;;;;;;5094710;28;20225;-72
2022/01/26 00:11:43;;;;;;;35.77;19.27;;;4.40;99.90;;;;;;5100569;28;20236;-71
2022/01/26 00:14:32;;;;;;;32.37;18.53;;;4.50;99.90;;;;;;5100889;28;20228;-71
2022/01/26 00:17:21;;;;;;;40.83;19.53;;;4.40;99.90;;;;;;5105437;27;20223;-72
2022/01/26 00:20:19;;;;;;;33.50;18.53;;;4.50;99.90;;;;;;5117115;27;20593;-70
2022/01/26 00:23:22;;;;;;;36.07;19.07;;;4.50;99.90;;;;;;5100281;27;20222;-72
2022/01/26 00:26:23;;;;;;;33.90;18.73;;;4.40;99.90;;;;;;5105311;27;20229;-69
2022/01/26 00:29:13;;;;;;;34.10;18.33;;;4.50;99.90;;;;;;5097675;27;20232;-72
2022/01/26 00:41:32;;;;;;;30.60;17.93;;;4.50;99.90;;;;;;5119867;27;20220;-72
2022/01/26 00:44:21;;;;;;;29.17;17.03;;;4.40;99.90;;;;;;5120419;27;20309;-70
2022/01/26 00:47:10;;;;;;;33.23;17.30;;;4.50;99.90;;;;;;5116402;27;20223;-72
2022/01/26 00:50:03;;;;;;;34.87;18.90;;;4.60;99.90;;;;;;5104260;27;20225;-69
2022/01/26 00:52:54;;;;;;;31.90;19.17;;;4.50;99.90;;;;;;5097123;28;20225;-72
2022/01/26 00:55:43;;;;;;;35.43;20.23;;;4.60;99.90;;;;;;5107173;27;20234;-71
2022/01/26 00:58:34;;;;;;;32.27;17.13;;;4.60;99.90;;;;;;5124894;27;20595;-72
2022/01/26 01:01:23;;;;;;;31.90;17.37;;;4.60;99.90;;;;;;5100591;28;20222;-72
2022/01/26 01:04:12;;;;;;;35.37;18.20;;;4.50;99.90;;;;;;5098446;28;20233;-72
2022/01/26 01:07:03;;;;;;;33.67;17.43;;;4.50;99.90;;;;;;5080077;28;20229;-71
2022/01/26 01:09:52;;;;;;;31.23;17.10;;;4.50;99.90;;;;;;5097469;27;20250;-71
2022/01/26 01:12:45;;;;;;;36.73;18.63;;;4.50;99.90;;;;;;5097105;27;20282;-72
2022/01/26 01:15:35;;;;;;;33.57;18.50;;;4.50;99.90;;;;;;5094367;28;20216;-71
2022/01/26 01:18:30;;;;;;;33.87;18.93;;;4.60;99.90;;;;;;5097464;27;20230;-71
2022/01/26 01:21:58;;;;;;;35.47;19.13;;;4.60;99.90;;;;;;5095994;28;20215;-71
2022/01/26 01:30:57;;;;;;;39.97;19.00;;;4.30;99.90;;;;;;5094932;27;20229;-70
2022/01/26 01:33:48;;;;;;;36.03;18.90;;;4.30;99.90;;;;;;5099621;27;20217;-70
2022/01/26 01:36:39;;;;;;;33.90;19.03;;;4.40;99.90;;;;;;5096296;27;20220;-70
2022/01/26 01:39:29;;;;;;;36.43;18.33;;;4.40;99.90;;;;;;5116147;27;20219;-71
2022/01/26 01:42:18;;;;;;;42.50;19.97;;;4.40;99.90;;;;;;5099605;27;20933;-71
2022/01/26 01:45:08;;;;;;;36.03;19.90;;;4.40;99.90;;;;;;5087349;28;20229;-71
2022/01/26 01:47:58;;;;;;;36.40;19.23;;;4.30;99.90;;;;;;5089030;27;20247;-69
2022/01/26 01:50:51;;;;;;;37.03;19.43;;;4.30;99.90;;;;;;5096037;28;20219;-68
2022/01/26 01:53:41;;;;;;;37.27;19.07;;;4.30;99.90;;;;;;5099336;27;20212;-70
2022/01/26 01:56:30;;;;;;;36.67;20.40;;;4.30;99.90;;;;;;5093999;28;20261;-70
2022/01/26 01:59:19;;;;;;;33.63;18.73;;;4.40;99.90;;;;;;5083058;28;20221;-69
2022/01/26 02:02:07;;;;;;;37.80;21.47;;;4.30;99.90;;;;;;5094049;28;20224;-70
2022/01/26 02:04:59;;;;;;;35.37;20.40;;;4.40;99.90;;;;;;5097965;27;20215;-70
2022/01/26 02:07:47;;;;;;;40.47;20.83;;;4.30;99.90;;;;;;5099027;27;20214;-71
2022/01/26 02:10:37;;;;;;;43.73;21.87;;;4.40;99.90;;;;;;5093044;27;20213;-70
2022/01/26 02:13:29;;;;;;;39.53;21.03;;;4.30;99.90;;;;;;5098872;28;20224;-70
2022/01/26 02:16:24;;;;;;;39.80;21.70;;;4.40;99.90;;;;;;5107440;27;20224;-69
2022/01/26 02:53:53;;;;;;;40.07;21.57;;;4.40;99.90;;;;;;5066564;28;20667;-70
2022/01/26 02:56:54;;;;;;;40.30;21.57;;;4.40;99.90;;;;;;5103012;27;20240;-71
2022/01/26 03:02:55;;;;;;;35.67;20.83;;;4.30;99.90;;;;;;5114001;27;20239;-69
2022/01/26 03:05:51;;;;;;;39.03;22.17;;;4.20;99.90;;;;;;5096612;28;20215;-70
2022/01/26 03:08:48;;;;;;;42.37;21.37;;;4.10;99.90;;;;;;5095963;28;20226;-71
2022/01/26 03:11:39;;;;;;;38.20;20.70;;;4.20;99.90;;;;;;5083881;28;20222;-70
2022/01/26 03:14:37;;;;;;;38.30;21.17;;;4.20;99.90;;;;;;5086661;28;20288;-71
2022/01/26 03:17:41;;;;;;;40.00;21.63;;;4.30;99.90;;;;;;5090661;28;20231;-70
2022/01/26 03:20:32;;;;;;;39.60;21.93;;;4.10;99.90;;;;;;5081306;28;20828;-71
2022/01/26 03:29:54;;;;;;;40.93;21.17;;;4.10;99.90;;;;;;5095622;28;20225;-70
2022/01/26 03:33:07;;;;;;;45.17;22.33;;;4.10;99.90;;;;;;5095615;28;20217;-71
2022/01/26 03:35:59;;;;;;;41.37;21.70;;;4.10;99.90;;;;;;5097085;28;20223;-70
2022/01/26 03:38:55;;;;;;;40.80;21.90;;;4.10;99.90;;;;;;5099268;28;20220;-71
2022/01/26 03:41:49;;;;;;;44.57;22.27;;;4.00;99.90;;;;;;5091775;28;20791;-72
2022/01/26 03:44:37;;;;;;;40.60;21.43;;;4.00;99.90;;;;;;5095848;28;20812;-71
2022/01/26 03:47:26;;;;;;;43.80;22.30;;;4.10;99.90;;;;;;5095332;28;20228;-71
2022/01/26 03:50:15;;;;;;;35.17;20.20;;;4.30;99.90;;;;;;5110182;27;20538;-71
2022/01/26 03:53:03;;;;;;;35.10;20.00;;;4.30;99.90;;;;;;5104521;28;20215;-70
2022/01/26 03:55:52;;;;;;;34.27;19.83;;;4.20;99.90;;;;;;5098637;27;20219;-70
2022/01/26 03:58:42;;;;;;;42.70;20.97;;;4.20;99.90;;;;;;5116937;27;20220;-70
2022/01/26 04:01:31;;;;;;;43.00;21.73;;;4.20;99.90;;;;;;5094631;28;20308;-70
2022/01/26 04:04:20;;;;;;;48.40;23.00;;;4.20;99.90;;;;;;5089575;28;20595;-70
2022/01/26 04:07:12;;;;;;;40.23;21.70;;;4.00;99.90;;;;;;5093607;28;20227;-70
2022/01/26 04:10:07;;;;;;;45.03;22.50;;;4.00;99.90;;;;;;5096994;28;20629;-70
2022/01/26 04:12:56;;;;;;;41.63;21.97;;;4.10;99.90;;;;;;5093670;28;20536;-70
2022/01/26 04:15:46;;;;;;;39.50;22.23;;;4.20;99.90;;;;;;5094679;28;20244;-70
2022/01/26 04:18:41;;;;;;;42.87;22.17;;;4.20;99.90;;;;;;5094255;28;20280;-70
2022/01/26 04:21:42;;;;;;;41.60;22.77;;;4.10;99.90;;;;;;5096425;28;20220;-69
2022/01/26 04:24:35;;;;;;;49.17;23.50;;;4.00;99.90;;;;;;5101637;28;20227;-71
2022/01/26 04:27:33;;;;;;;42.20;22.90;;;4.10;99.90;;;;;;5101886;28;20268;-70
2022/01/26 04:30:23;;;;;;;42.47;22.47;;;4.00;99.90;;;;;;5113490;27;20336;-69
2022/01/26 04:33:13;;;;;;;42.77;22.40;;;3.90;99.90;;;;;;5111247;27;20224;-70
2022/01/26 04:36:04;;;;;;;40.90;21.83;;;3.80;99.90;;;;;;5100149;27;20464;-71
2022/01/26 04:38:56;;;;;;;40.53;21.30;;;4.00;99.90;;;;;;5094961;27;20284;-70
2022/01/26 04:41:50;;;;;;;40.70;21.43;;;4.00;99.90;;;;;;5106218;27;20219;-68
2022/01/26 04:44:44;;;;;;;33.60;20.20;;;3.90;99.90;;;;;;5110625;27;20229;-71
2022/01/26 04:47:36;;;;;;;37.80;20.63;;;3.90;99.90;;;;;;5087693;27;20216;-70
2022/01/26 04:50:26;;;;;;;38.93;20.77;;;4.10;99.90;;;;;;5096531;28;20334;-70
2022/01/26 04:53:15;;;;;;;38.07;19.37;;;4.00;99.90;;;;;;5092823;27;20234;-70
2022/01/26 04:56:04;;;;;;;42.53;19.40;;;3.90;99.90;;;;;;5097224;27;20219;-71
2022/01/26 04:58:52;;;;;;;37.90;19.33;;;4.00;99.90;;;;;;5096903;27;20807;-69
2022/01/26 05:01:41;;;;;;;37.90;18.33;;;3.90;99.90;;;;;;5099382;28;20734;-70
2022/01/26 05:04:30;;;;;;;33.60;17.40;;;3.90;99.90;;;;;;5098105;27;20235;-70
2022/01/26 05:07:19;;;;;;;34.43;17.07;;;3.90;99.90;;;;;;5092173;27;20231;-71
2022/01/26 05:10:09;;;;;;;33.03;16.20;;;3.90;99.90;;;;;;5097849;28;20231;-69
2022/01/26 05:12:58;;;;;;;28.17;15.00;;;4.00;99.90;;;;;;5108928;27;20218;-71
2022/01/26 05:15:46;;;;;;;30.90;15.37;;;4.00;99.90;;;;;;5098268;27;20228;-71
2022/01/26 05:18:35;;;;;;;29.43;15.97;;;3.90;99.90;;;;;;5098226;27;20599;-71
2022/01/26 05:21:25;;;;;;;30.47;14.47;;;3.90;99.90;;;;;;5097620;28;20228;-70
2022/01/26 05:24:15;;;;;;;26.60;14.50;;;3.90;99.90;;;;;;5096224;28;20228;-71
2022/01/26 05:27:04;;;;;;;25.37;13.90;;;4.00;99.90;;;;;;5097503;28;20243;-71
2022/01/26 05:29:52;;;;;;;25.43;12.90;;;4.10;99.90;;;;;;5096399;28;20211;-71
2022/01/26 05:32:41;;;;;;;25.43;13.03;;;4.00;99.90;;;;;;5111252;27;20286;-72
2022/01/26 05:35:30;;;;;;;23.63;13.13;;;3.90;99.90;;;;;;5094327;28;20227;-72
2022/01/26 05:38:19;;;;;;;21.60;12.00;;;3.70;99.90;;;;;;5087665;27;20211;-70
2022/01/26 05:41:10;;;;;;;23.30;12.00;;;3.80;99.90;;;;;;5108634;27;20216;-71
2022/01/26 05:44:00;;;;;;;27.87;11.50;;;4.00;99.90;;;;;;5116138;27;20292;-71
2022/01/26 05:46:50;;;;;;;23.07;10.70;;;3.90;99.90;;;;;;5100412;27;20211;-71
2022/01/26 05:49:38;;;;;;;20.97;10.73;;;3.70;99.90;;;;;;5098439;27;20220;-71
2022/01/26 05:52:27;;;;;;;20.87;10.60;;;3.90;99.90;;;;;;5091006;28;20306;-72
2022/01/26 05:55:16;;;;;;;24.67;11.43;;;3.90;99.90;;;;;;5088437;27;20440;-70
2022/01/26 05:58:06;;;;;;;19.67;11.47;;;4.00;99.90;;;;;;5092054;28;20219;-71
2022/01/26 06:00:57;;;;;;;23.37;11.90;;;4.00;99.90;;;;;;5088502;27;20231;-71
2022/01/26 06:03:46;;;;;;;19.40;11.30;;;3.90;99.90;;;;;;5098829;27;20307;-71
2022/01/26 06:06:34;;;;;;;21.07;12.13;;;3.90;99.90;;;;;;5101689;27;20204;-71
2022/01/26 06:09:23;;;;;;;24.90;13.00;;;3.70;99.90;;;;;;5098119;27;20227;-71
2022/01/26 06:12:12;;;;;;;29.80;13.80;;;3.70;99.90;;;;;;5117109;27;20216;-72
2022/01/26 06:15:04;;;;;;;29.27;14.37;;;3.80;99.90;;;;;;5109668;27;20231;-72
2022/01/26 06:17:52;;;;;;;29.73;15.23;;;3.90;99.90;;;;;;5097392;27;20486;-71
2022/01/26 06:20:42;;;;;;;30.20;14.83;;;3.90;99.90;;;;;;5100786;27;20687;-71
2022/01/26 06:23:30;;;;;;;31.60;15.87;;;4.00;99.90;;;;;;5099103;27;20586;-70
2022/01/26 06:26:19;;;;;;;31.50;16.20;;;4.00;99.90;;;;;;5091490;28;20211;-72
2022/01/26 06:29:08;;;;;;;29.27;15.83;;;4.00;99.90;;;;;;5098353;27;20227;-69
2022/01/26 06:31:58;;;;;;;27.33;15.00;;;3.90;99.90;;;;;;5096837;28;20216;-70
2022/01/26 06:34:47;;;;;;;28.83;14.37;;;3.80;99.90;;;;;;5099599;27;20220;-69
2022/01/26 06:37:36;;;;;;;27.83;14.77;;;3.80;99.90;;;;;;5101330;28;20282;-69
2022/01/26 06:40:25;;;;;;;25.90;14.00;;;3.80;99.90;;;;;;5096846;28;20852;-69
2022/01/26 06:43:15;;;;;;;24.90;13.67;;;3.90;99.90;;;;;;5091792;28;20219;-72
2022/01/26 06:46:06;;;;;;;30.60;14.93;;;3.90;99.90;;;;;;5099136;27;20226;-71
2022/01/26 06:49:28;;;;;;;29.57;15.93;;;3.80;99.90;;;;;;5095188;28;20215;-70
2022/01/26 06:52:10;;;;;;;39.33;17.10;;;3.80;99.90;;;;;;5111442;27;20327;-69
2022/01/26 06:54:58;;;;;;;32.47;17.60;;;3.80;99.90;;;;;;5096594;27;20241;-71
2022/01/26 06:57:47;;;;;;;32.13;17.30;;;3.90;99.90;;;;;;5095446;28;20243;-69
2022/01/26 07:00:36;;;;;;;33.87;17.37;;;3.90;99.90;;;;;;5097307;28;20751;-70
2022/01/26 07:03:25;;;;;;;32.87;18.23;;;3.80;99.90;;;;;;5094373;28;20236;-71
2022/01/26 07:06:15;;;;;;;34.57;18.00;;;4.00;99.90;;;;;;5098547;28;20216;-73
2022/01/26 07:09:04;;;;;;;34.17;17.73;;;3.80;99.90;;;;;;5094884;27;20227;-71
2022/01/26 07:11:52;;;;;;;35.30;18.13;;;3.90;99.90;;;;;;5097788;28;20216;-71
2022/01/26 07:24:07;;;;;;;41.07;18.37;;;3.90;99.90;;;;;;5108412;27;20292;-71
2022/01/26 07:26:56;;;;;;;34.93;18.07;;;3.90;99.90;;;;;;5100675;27;20610;-73
2022/01/26 07:29:48;;;;;;;38.30;18.80;;;4.10;99.90;;;;;;5095244;28;20231;-71
2022/01/26 07:32:37;;;;;;;31.50;17.23;;;3.80;99.90;;;;;;5095256;28;20288;-72
2022/01/26 07:35:26;;;;;;;35.07;18.93;;;4.00;99.90;;;;;;5095554;28;20235;-68
2022/01/26 07:38:15;;;;;;;29.93;16.00;;;4.00;99.90;;;;;;5098420;28;20306;-72
2022/01/26 07:41:05;;;;;;;36.43;17.47;;;3.90;99.90;;;;;;5095660;27;20219;-72
2022/01/26 07:43:54;;;;;;;40.17;18.60;;;3.90;99.90;;;;;;5098224;27;20235;-71
2022/01/26 07:46:46;;;;;;;34.73;16.93;;;3.90;99.90;;;;;;5099022;27;20217;-71
2022/01/26 07:49:35;;;;;;;33.63;16.53;;;4.00;99.90;;;;;;5102491;27;20327;-72
2022/01/26 07:52:25;;;;;;;29.93;16.90;;;4.20;99.90;;;;;;5090322;28;20215;-71
2022/01/26 07:55:17;;;;;;;31.17;16.73;;;4.20;99.90;;;;;;5094494;28;20240;-72
2022/01/26 07:58:09;;;;;;;31.00;17.03;;;3.90;99.90;;;;;;5091210;28;20230;-71
2022/01/26 08:00:58;;;;;;;33.80;17.07;;;4.00;99.90;;;;;;5095340;27;20347;-70
2022/01/26 08:03:47;;;;;;;31.67;15.87;;;3.90;99.90;;;;;;5099365;27;20314;-75
2022/01/26 08:06:35;;;;;;;29.57;16.60;;;3.90;99.90;;;;;;5100708;28;20307;-70
2022/01/26 08:09:25;;;;;;;27.53;15.60;;;4.10;99.90;;;;;;5098545;27;20234;-69
2022/01/26 08:12:16;;;;;;;30.83;15.97;;;4.10;99.90;;;;;;5104923;27;20226;-69
2022/01/26 08:15:07;;;;;;;29.00;15.13;;;4.00;99.90;;;;;;5119489;27;20226;-69
2022/01/26 08:17:58;;;;;;;30.93;16.23;;;4.20;99.90;;;;;;5116689;27;20235;-70
2022/01/26 08:20:46;;;;;;;29.80;16.23;;;4.00;99.90;;;;;;5120830;27;20563;-71
2022/01/26 08:23:37;;;;;;;34.13;16.03;;;4.00;99.90;;;;;;5118180;27;20217;-69
2022/01/26 08:26:34;;;;;;;32.17;15.60;;;4.00;99.90;;;;;;5104075;27;20676;-70
2022/01/26 08:29:28;;;;;;;31.00;15.87;;;3.90;99.90;;;;;;5091114;28;20307;-70
2022/01/26 08:32:18;;;;;;;32.37;17.93;;;4.00;99.90;;;;;;5096211;28;20457;-71
2022/01/26 08:35:07;;;;;;;35.23;17.30;;;4.30;99.90;;;;;;5091610;27;20327;-69
2022/01/26 08:37:56;;;;;;;32.33;17.63;;;4.40;99.90;;;;;;5098610;27;20217;-69
2022/01/26 08:40:46;;;;;;;38.43;17.40;;;4.30;99.90;;;;;;5101141;28;20620;-69
2022/01/26 08:43:35;;;;;;;39.83;18.27;;;4.30;99.90;;;;;;5100304;28;20243;-67
2022/01/26 08:46:23;;;;;;;39.27;18.10;;;4.30;99.90;;;;;;5102443;28;20226;-68
2022/01/26 08:49:13;;;;;;;33.90;17.97;;;4.20;99.90;;;;;;5089998;28;20219;-69
2022/01/26 08:52:02;;;;;;;37.00;18.20;;;4.30;99.90;;;;;;5100099;28;20723;-70
2022/01/26 08:54:51;;;;;;;37.67;19.40;;;4.30;99.90;;;;;;5098620;27;20225;-70
2022/01/26 08:57:40;;;;;;;34.33;17.00;;;4.40;99.90;;;;;;5096560;27;20277;-71
2022/01/26 09:00:28;;;;;;;34.23;18.37;;;4.40;99.90;;;;;;5098574;27;20213;-69
2022/01/26 09:03:17;;;;;;;32.47;17.57;;;4.50;99.90;;;;;;5098895;28;20225;-69
2022/01/26 09:06:08;;;;;;;36.57;18.57;;;4.60;99.90;;;;;;5095641;27;20245;-70
2022/01/26 09:09:06;;;;;;;37.93;19.27;;;4.70;99.90;;;;;;5101236;27;20226;-70
2022/01/26 09:11:57;;;;;;;41.33;19.97;;;4.90;99.90;;;;;;5093709;27;20322;-70
2022/01/26 09:14:47;;;;;;;37.83;19.07;;;4.60;99.90;;;;;;5098416;27;20232;-69
2022/01/26 09:17:37;;;;;;;39.00;18.27;;;4.50;99.90;;;;;;5098453;28;20227;-69
2022/01/26 09:20:26;;;;;;;30.20;18.10;;;4.60;99.90;;;;;;5127087;27;20218;-72
2022/01/26 09:23:16;;;;;;;29.60;17.03;;;4.80;99.90;;;;;;5102559;27;20215;-70
2022/01/26 09:26:05;;;;;;;31.97;17.87;;;4.90;99.90;;;;;;5099317;27;20237;-71
2022/01/26 09:28:54;;;;;;;31.70;16.87;;;4.80;99.90;;;;;;5110700;27;20218;-68
2022/01/26 09:31:47;;;;;;;31.77;18.23;;;4.70;99.90;;;;;;5119399;27;20240;-70
2022/01/26 09:34:37;;;;;;;34.30;17.30;;;4.70;99.90;;;;;;5092599;27;20214;-70
2022/01/26 09:37:26;;;;;;;32.97;17.37;;;4.70;99.90;;;;;;5100135;28;20587;-71
2022/01/26 09:40:16;;;;;;;40.87;18.43;;;4.60;99.90;;;;;;5111295;27;20221;-69
2022/01/26 09:43:05;;;;;;;33.07;17.60;;;4.70;99.90;;;;;;5106403;27;20242;-69
2022/01/26 09:45:54;;;;;;;34.23;18.67;;;4.70;99.90;;;;;;5101178;27;20234;-69
2022/01/26 09:48:43;;;;;;;34.27;18.47;;;4.90;99.90;;;;;;5097142;28;20222;-69
2022/01/26 09:51:39;;;;;;;34.93;18.37;;;4.80;99.90;;;;;;5120087;27;20223;-68
2022/01/26 09:54:30;;;;;;;39.73;18.47;;;4.60;99.90;;;;;;5105606;27;20218;-69
2022/01/26 09:57:42;;;;;;;39.30;19.63;;;4.50;99.90;;;;;;5109602;27;20224;-69
2022/01/26 10:00:34;;;;;;;35.20;18.50;;;4.50;99.90;;;;;;5105414;27;21212;-69
2022/01/26 10:03:27;;;;;;;36.67;17.70;;;4.60;99.90;;;;;;5099598;27;20219;-68
2022/01/26 10:06:23;;;;;;;36.83;18.80;;;4.70;99.90;;;;;;5119197;27;20251;-68
2022/01/26 10:15:35;;;;;;;29.70;16.27;;;4.90;99.90;;;;;;5112417;27;20499;-69
2022/01/26 10:18:23;;;;;;;27.33;16.13;;;5.00;99.90;;;;;;5095624;28;20556;-69
2022/01/26 10:21:12;;;;;;;26.70;15.13;;;5.20;99.90;;;;;;5097172;27;20313;-69
2022/01/26 10:24:10;;;;;;;27.33;14.57;;;5.30;99.90;;;;;;5089262;28;20234;-68
2022/01/26 10:27:00;;;;;;;26.40;14.57;;;5.30;99.90;;;;;;5098827;28;20222;-68
2022/01/26 10:29:49;;;;;;;25.27;13.50;;;5.30;99.90;;;;;;5100879;28;20250;-69
2022/01/26 10:32:41;;;;;;;25.60;13.80;;;5.20;99.90;;;;;;5106152;27;20230;-68
2022/01/26 10:35:30;;;;;;;31.30;15.17;;;5.40;99.90;;;;;;5103911;27;20355;-68
2022/01/26 10:38:18;;;;;;;28.33;12.67;;;5.30;99.90;;;;;;5118763;27;20229;-66
2022/01/26 10:41:19;;;;;;;25.30;13.80;;;5.10;99.90;;;;;;5121595;27;20251;-68
2022/01/26 10:44:09;;;;;;;22.60;12.00;;;5.20;99.90;;;;;;5099678;28;21423;-69
2022/01/26 10:47:00;;;;;;;22.47;11.27;;;5.40;99.90;;;;;;5097760;28;20794;-67
2022/01/26 10:50:08;;;;;;;21.03;10.53;;;5.40;99.90;;;;;;5109065;27;20210;-68
2022/01/26 10:53:07;;;;;;;19.27;10.10;;;5.30;99.90;;;;;;5102224;28;20703;-68
2022/01/26 10:55:56;;;;;;;18.53;9.63;;;5.40;99.90;;;;;;5099693;28;20241;-68
2022/01/26 10:58:44;;;;;;;19.37;10.20;;;5.40;99.90;;;;;;5096280;27;20533;-68
2022/01/26 11:01:36;;;;;;;19.63;10.00;;;5.40;99.90;;;;;;5092402;27;20215;-69
2022/01/26 11:04:26;;;;;;;15.53;9.37;;;5.30;99.90;;;;;;5096081;28;20219;-69
2022/01/26 11:07:17;;;;;;;19.27;8.97;;;5.50;99.90;;;;;;5093786;28;21083;-70
2022/01/26 11:10:08;;;;;;;12.80;8.97;;;5.30;99.90;;;;;;5096764;28;20219;-72
2022/01/26 11:12:57;;;;;;;15.67;8.47;;;5.20;99.90;;;;;;5094826;28;20262;-68
2022/01/26 11:15:46;;;;;;;11.93;8.43;;;5.40;99.90;;;;;;5096269;28;20219;-68
2022/01/26 11:18:46;;;;;;;13.17;7.40;;;5.40;99.90;;;;;;5098924;28;20234;-68
2022/01/26 11:21:39;;;;;;;15.53;8.87;;;5.40;99.90;;;;;;5092109;28;20235;-69
2022/01/26 11:24:29;;;;;;;10.10;7.10;;;5.30;99.90;;;;;;5091900;28;20229;-69
2022/01/26 11:27:19;;;;;;;26.33;7.70;;;5.00;99.90;;;;;;5094235;28;20273;-70
2022/01/26 11:30:17;;;;;;;18.90;7.97;;;5.00;99.90;;;;;;5089953;28;20683;-69
2022/01/26 11:33:14;;;;;;;14.23;8.00;;;5.10;99.90;;;;;;5100739;27;20222;-70
2022/01/26 11:36:04;;;;;;;20.73;9.23;;;5.00;99.90;;;;;;5100445;28;20219;-68
2022/01/26 11:45:11;;;;;;;23.73;13.73;;;5.10;99.90;;;;;;5102615;27;20252;-68
2022/01/26 11:48:03;;;;;;;24.67;14.13;;;5.00;99.90;;;;;;5111642;27;20237;-70
2022/01/26 11:50:59;;;;;;;29.10;15.47;;;5.00;99.90;;;;;;5097894;28;20226;-67
2022/01/26 11:53:47;;;;;;;29.53;15.70;;;4.90;99.90;;;;;;5098752;28;20233;-70
2022/01/26 11:56:36;;;;;;;29.57;16.40;;;4.80;99.90;;;;;;5103389;28;20210;-69
2022/01/26 11:59:29;;;;;;;35.33;18.40;;;4.70;99.90;;;;;;5096164;28;20326;-70
2022/01/26 12:02:26;;;;;;;31.57;19.10;;;4.60;99.90;;;;;;5103001;28;20288;-69
2022/01/26 12:05:20;;;;;;;37.80;19.53;;;4.60;99.90;;;;;;5094614;28;20848;-69
2022/01/26 12:08:09;;;;;;;32.20;19.27;;;4.60;99.90;;;;;;5125039;27;20829;-70
2022/01/26 12:10:57;;;;;;;32.97;17.77;;;4.70;99.90;;;;;;5103206;27;20232;-70
2022/01/26 12:13:50;;;;;;;27.90;18.23;;;4.60;99.90;;;;;;5107847;27;20231;-70
2022/01/26 12:16:45;;;;;;;28.20;18.53;;;4.50;99.90;;;;;;5105135;27;20229;-69
2022/01/26 12:19:44;;;;;;;29.67;18.73;;;4.60;99.90;;;;;;5120780;27;20566;-69
2022/01/26 12:32:23;;;;;;;33.60;17.87;;;4.60;99.90;;;;;;5103301;27;20225;-69
2022/01/26 12:35:20;;;;;;;31.23;17.47;;;4.50;99.90;;;;;;5119292;27;20369;-69
2022/01/26 12:38:15;;;;;;;29.50;16.60;;;4.60;99.90;;;;;;5088695;27;20719;-70
2022/01/26 12:41:26;;;;;;;29.97;16.97;;;4.50;99.90;;;;;;5088419;28;20321;-68
2022/01/26 12:44:15;;;;;;;30.70;15.90;;;4.40;99.90;;;;;;5097845;28;20232;-70
2022/01/26 12:47:05;;;;;;;26.57;15.13;;;4.50;99.90;;;;;;5117494;27;20755;-70
2022/01/26 12:49:56;;;;;;;27.93;16.37;;;4.60;99.90;;;;;;5105360;27;20220;-68
2022/01/26 12:52:46;;;;;;;24.93;15.70;;;4.60;99.90;;;;;;5118086;27;20217;-70
2022/01/26 12:55:37;;;;;;;26.90;15.27;;;4.50;99.90;;;;;;5119520;27;20221;-70
2022/01/26 12:58:27;;;;;;;22.17;14.57;;;4.60;99.90;;;;;;5094744;28;20214;-68
2022/01/26 13:01:18;;;;;;;22.93;14.37;;;4.50;99.90;;;;;;5108190;27;20219;-69
2022/01/26 13:04:09;;;;;;;29.20;16.47;;;4.40;99.90;;;;;;5105674;27;20582;-70
2022/01/26 13:06:59;;;;;;;26.00;16.63;;;4.50;99.90;;;;;;5112402;27;20222;-69
2022/01/26 13:09:48;;;;;;;27.33;16.30;;;4.50;99.90;;;;;;5096325;27;20240;-70
2022/01/26 13:12:36;;;;;;;26.53;16.53;;;4.40;99.90;;;;;;5097782;28;20230;-69
2022/01/26 13:15:40;;;;;;;26.37;16.53;;;4.60;99.90;;;;;;5087884;28;21431;-70
2022/01/26 13:19:00;;;;;;;25.00;15.67;;;4.70;99.90;;;;;;5119532;27;20243;-70
2022/01/26 13:25:27;;;;;;;27.07;14.83;;;4.50;99.90;;;;;;5123372;27;20317;-69
2022/01/26 13:37:50;;;;;;;18.77;11.80;;;4.60;99.90;;;;;;5113325;27;20298;-70
2022/01/26 13:40:51;;;;;;;19.00;13.30;;;4.60;99.90;;;;;;5110534;27;20231;-71
2022/01/26 13:44:11;;;;;;;22.93;13.13;;;4.50;99.90;;;;;;5095827;28;20229;-69
2022/01/26 13:50:17;;;;;;;20.37;13.13;;;4.30;99.90;;;;;;5104832;27;20232;-70
2022/01/26 13:53:16;;;;;;;24.30;12.07;;;4.40;99.90;;;;;;5095169;27;20227;-70
2022/01/26 13:56:13;;;;;;;18.80;12.07;;;4.40;99.90;;;;;;5097695;28;20229;-69
2022/01/26 13:59:11;;;;;;;22.50;12.90;;;4.50;99.90;;;;;;5089940;27;20239;-70
2022/01/26 14:02:00;;;;;;;19.67;12.63;;;4.40;99.90;;;;;;5104430;27;20233;-70
2022/01/26 14:04:49;;;;;;;21.37;13.33;;;4.50;99.90;;;;;;5102184;27;20713;-71
2022/01/26 14:07:38;;;;;;;22.27;13.40;;;4.30;99.90;;;;;;5092898;27;20267;-71
2022/01/26 14:10:28;;;;;;;22.87;13.13;;;4.50;99.90;;;;;;5096978;28;20588;-75
2022/01/26 14:13:20;;;;;;;21.30;12.83;;;4.40;99.90;;;;;;5097705;27;20221;-73
2022/01/26 14:16:10;;;;;;;21.97;12.47;;;4.50;99.90;;;;;;5095215;27;20215;-72
2022/01/26 14:19:08;;;;;;;21.20;12.73;;;4.30;99.90;;;;;;5094960;28;20326;-72
2022/01/26 14:22:29;;;;;;;22.07;12.53;;;4.40;99.90;;;;;;5096423;27;20241;-72
2022/01/26 14:25:24;;;;;;;24.53;13.63;;;4.40;99.90;;;;;;5099366;28;20240;-72
2022/01/26 14:28:17;;;;;;;24.70;14.73;;;4.50;99.90;;;;;;5100027;28;20220;-72
2022/01/26 14:34:46;;;;;;;25.60;14.57;;;4.50;99.90;;;;;;5112232;27;20226;-72
2022/01/26 14:40:55;;;;;;;28.70;14.20;;;4.50;99.90;;;;;;5095391;28;20225;-72
2022/01/26 15:09:32;;;;;;;35.93;19.43;;;4.60;99.90;;;;;;5033859;28;20222;-72
2022/01/26 15:19:33;;;;;;;41.00;22.40;;;4.80;99.90;;;;;;5092483;28;20260;-71
2022/01/26 15:35:04;;;;;;;40.37;23.50;;;4.80;99.90;;;;;;5105219;28;20231;-72
2022/01/26 15:41:14;;;;;;;42.40;24.73;;;4.90;99.90;;;;;;5105858;28;20903;-71
2022/01/26 15:44:18;;;;;;;38.47;23.93;;;4.90;99.90;;;;;;5116027;28;20232;-72
2022/01/26 15:50:45;;;;;;;40.67;24.17;;;4.80;99.90;;;;;;5095974;28;20302;-73
2022/01/26 16:06:13;;;;;;;33.00;19.20;;;4.90;99.90;;;;;;5099720;28;20221;-73
2022/01/26 16:21:44;;;;;;;23.97;14.63;;;4.90;99.90;;;;;;5097767;28;20220;-74
2022/01/26 17:02:54;;;;;;;23.10;13.03;;;4.80;99.90;;;;;;5107063;27;20215;-80
2022/01/26 17:46:40;;;;;;;14.87;8.97;;;4.80;99.90;;;;;;5103126;27;20310;-76
2022/01/26 17:47:25;;;;;;;14.70;9.60;;;4.80;99.90;;;;;;5067909;28;20215;-75
2022/01/26 18:15:30;;;;;;;19.13;11.93;;;4.80;99.90;;;;;;5083522;28;20221;-81
2022/01/26 18:40:45;;;;;;;22.33;12.67;;;4.70;99.90;;;;;;5075866;28;20238;-79
2022/01/26 18:49:10;;;;;;;19.93;13.73;;;4.70;99.90;;;;;;5085855;27;21176;-77
2022/01/26 18:50:02;;;;;;;21.67;13.30;;;4.60;99.90;;;;;;5126571;27;20226;-77
2022/01/26 18:52:56;;;;;;;21.23;12.77;;;4.60;99.90;;;;;;5122002;27;20216;-78
2022/01/26 18:55:46;;;;;;;20.87;12.33;;;4.60;99.90;;;;;;5125646;27;20220;-77
2022/01/26 18:58:36;;;;;;;19.67;12.33;;;4.50;99.90;;;;;;5119492;27;20705;-78
2022/01/26 19:01:25;;;;;;;21.80;13.30;;;4.50;99.90;;;;;;5104205;27;20257;-79
2022/01/26 19:04:38;;;;;;;20.37;12.87;;;4.50;99.90;;;;;;5109082;27;21269;-79
2022/01/26 19:07:27;;;;;;;23.60;14.43;;;4.40;99.90;;;;;;5123728;27;20220;-79
2022/01/26 19:10:16;;;;;;;22.27;14.57;;;4.40;99.90;;;;;;5108611;28;20377;-79
2022/01/26 19:13:06;;;;;;;24.17;15.20;;;4.30;99.90;;;;;;5108513;28;20888;-77
2022/01/26 19:16:01;;;;;;;22.53;15.10;;;4.20;99.90;;;;;;5096007;28;20324;-78
2022/01/26 19:18:58;;;;;;;25.10;15.27;;;4.20;99.90;;;;;;5106225;28;20221;-80
2022/01/26 19:22:02;;;;;;;23.93;16.03;;;4.30;99.90;;;;;;5103457;28;20217;-78
2022/01/26 19:24:57;;;;;;;22.43;14.23;;;4.30;99.90;;;;;;5104672;28;20221;-79
2022/01/26 19:27:53;;;;;;;25.40;16.43;;;4.10;99.90;;;;;;5104168;27;20224;-77
2022/01/26 19:40:52;;;;;;;26.27;15.30;;;4.30;99.90;;;;;;5116603;27;20229;-78
2022/01/26 19:43:50;;;;;;;23.83;15.23;;;4.30;99.90;;;;;;5132473;27;20302;-79
2022/01/26 19:47:12;;;;;;;22.10;13.67;;;4.20;99.90;;;;;;5120100;27;20333;-76
2022/01/26 19:53:08;;;;;;;21.63;14.03;;;4.10;99.90;;;;;;5109990;27;20235;-79
2022/01/26 19:55:57;;;;;;;21.77;13.43;;;4.00;99.90;;;;;;5112533;27;20213;-79
2022/01/26 19:58:45;;;;;;;22.40;13.67;;;4.00;99.90;;;;;;5102246;27;20226;-79
2022/01/26 20:01:34;;;;;;;22.43;13.13;;;4.10;99.90;;;;;;5102696;28;20226;-78
2022/01/26 20:04:25;;;;;;;20.40;12.97;;;4.00;99.90;;;;;;5098416;28;20713;-79
2022/01/26 20:07:18;;;;;;;25.87;13.50;;;4.00;99.90;;;;;;5100349;28;20228;-77
2022/01/26 20:10:09;;;;;;;22.23;13.30;;;4.00;99.90;;;;;;5103282;28;20719;-80
2022/01/26 20:13:03;;;;;;;24.50;15.17;;;4.10;99.90;;;;;;5096074;27;20227;-79
2022/01/26 20:15:52;;;;;;;26.03;15.47;;;4.00;99.90;;;;;;5101896;27;20222;-80
2022/01/26 20:18:41;;;;;;;25.87;16.00;;;4.00;99.90;;;;;;5099294;27;20723;-79
2022/01/26 20:21:31;;;;;;;24.53;14.63;;;4.10;99.90;;;;;;5099848;28;20215;-79
2022/01/26 20:24:21;;;;;;;24.47;15.37;;;4.00;99.90;;;;;;5103124;27;20293;-79